createdAt,value
2022-08-07T00:01:44.272Z,93.20
2022-08-07T00:04:06.014Z,93.90
2022-08-07T00:06:33.784Z,94.00
2022-08-07T00:09:16.291Z,94.70
2022-08-07T00:11:48.044Z,94.40
2022-08-07T00:14:25.474Z,94.10
2022-08-07T00:16:57.471Z,94.50
2022-08-07T00:19:26.060Z,94.80
2022-08-07T00:22:01.921Z,94.90
2022-08-07T00:24:31.563Z,95.30
2022-08-07T00:27:07.282Z,95.70
2022-08-07T00:29:37.024Z,96.70
2022-08-07T00:32:05.970Z,96.30
2022-08-07T00:34:35.566Z,97.20
2022-08-07T00:37:05.063Z,97.30
2022-08-07T00:39:32.314Z,97.30
2022-08-07T00:42:05.026Z,97.00
2022-08-07T00:44:33.627Z,96.90
2022-08-07T00:47:01.769Z,97.10
2022-08-07T00:50:19.611Z,97.60
2022-08-07T00:52:17.660Z,97.60
2022-08-07T00:54:47.118Z,97.90
2022-08-07T00:57:25.842Z,98.00
2022-08-07T00:59:53.795Z,98.80
2022-08-07T01:02:28.452Z,98.70
2022-08-07T01:04:58.234Z,98.40
2022-08-07T01:07:27.551Z,98.60
2022-08-07T01:10:06.764Z,98.60
2022-08-07T01:12:53.337Z,99.20
2022-08-07T01:15:20.821Z,99.90
2022-08-07T01:17:47.450Z,99.20
2022-08-07T01:20:16.585Z,99.50
2022-08-07T01:22:58.435Z,99.60
2022-08-07T01:25:54.131Z,99.90
2022-08-07T01:28:18.698Z,99.90
2022-08-07T01:30:46.359Z,99.90
2022-08-07T01:33:13.904Z,99.90
2022-08-07T01:35:54.326Z,99.90
2022-08-07T01:38:29.390Z,99.90
2022-08-07T01:41:01.032Z,99.90
2022-08-07T01:43:34.751Z,99.90
2022-08-07T01:46:05.566Z,99.90
2022-08-07T01:48:35.214Z,99.90
2022-08-07T01:51:58.723Z,99.90
2022-08-07T01:54:09.571Z,99.90
2022-08-07T01:57:00.190Z,99.90
2022-08-07T01:59:44.124Z,99.90
2022-08-07T02:03:11.466Z,99.90
2022-08-07T02:05:15.878Z,99.90
2022-08-07T02:07:58.455Z,99.90
2022-08-07T02:10:27.729Z,99.90
2022-08-07T02:12:59.746Z,99.90
2022-08-07T02:15:29.742Z,99.90
2022-08-07T02:17:59.900Z,99.90
2022-08-07T02:20:28.097Z,99.90
2022-08-07T02:23:01.719Z,99.90
2022-08-07T02:26:10.532Z,99.90
2022-08-07T02:28:24.606Z,99.90
2022-08-07T02:30:53.605Z,99.90
2022-08-07T02:33:21.378Z,99.90
2022-08-07T02:36:28.520Z,99.90
2022-08-07T02:38:38.858Z,99.90
2022-08-07T02:41:06.276Z,99.90
2022-08-07T02:43:38.955Z,99.90
2022-08-07T02:46:07.246Z,99.90
2022-08-07T02:48:34.447Z,99.90
2022-08-07T02:51:28.950Z,99.90
2022-08-07T02:54:01.456Z,99.90
2022-08-07T02:56:31.355Z,99.90
2022-08-07T02:59:02.036Z,99.90
2022-08-07T03:01:36.540Z,99.90
2022-08-07T03:04:07.702Z,99.90
2022-08-07T03:06:42.009Z,99.90
2022-08-07T03:09:11.699Z,99.90
2022-08-07T03:11:51.596Z,99.90
2022-08-07T03:14:20.401Z,99.90
2022-08-07T03:16:49.556Z,99.90
2022-08-07T03:19:16.519Z,99.90
2022-08-07T03:21:50.554Z,99.90
2022-08-07T03:24:26.951Z,99.90
2022-08-07T03:27:00.006Z,99.90
2022-08-07T03:29:37.822Z,99.90
2022-08-07T03:32:12.864Z,99.90
2022-08-07T03:34:47.163Z,99.90
2022-08-07T03:37:32.803Z,99.90
2022-08-07T03:40:15.435Z,99.90
2022-08-07T03:42:43.903Z,99.90
2022-08-07T03:45:11.565Z,99.90
2022-08-07T03:47:48.150Z,99.90
2022-08-07T03:50:23.105Z,99.90
2022-08-07T03:52:52.468Z,99.90
2022-08-07T03:55:19.206Z,99.90
2022-08-07T03:58:34.531Z,99.90
2022-08-07T04:00:36.760Z,99.90
2022-08-07T04:03:05.286Z,99.90
2022-08-07T04:05:40.412Z,99.90
2022-08-07T04:08:16.278Z,99.90
2022-08-07T04:10:54.514Z,99.90
2022-08-07T04:14:10.377Z,99.90
2022-08-07T04:16:31.435Z,99.90
2022-08-07T04:19:04.040Z,99.90
2022-08-07T04:21:39.038Z,99.90
2022-08-07T04:24:30.677Z,99.90
2022-08-07T04:27:02.844Z,99.90
2022-08-07T04:29:48.635Z,99.90
2022-08-07T04:32:18.255Z,99.90
2022-08-07T04:35:03.965Z,99.90
2022-08-07T04:37:52.807Z,99.90
2022-08-07T04:40:20.114Z,99.90
2022-08-07T04:42:51.779Z,99.90
2022-08-07T04:45:44.544Z,99.90
2022-08-07T04:48:12.755Z,99.90
2022-08-07T04:50:54.067Z,99.90
2022-08-07T04:54:01.638Z,99.90
2022-08-07T04:58:23.764Z,99.90
2022-08-07T05:00:10.945Z,99.90
2022-08-07T05:02:28.139Z,99.90
2022-08-07T05:05:54.037Z,99.90
2022-08-07T05:08:20.343Z,99.90
2022-08-07T05:11:19.027Z,99.90
2022-08-07T05:14:52.713Z,99.90
2022-08-07T05:16:52.726Z,99.90
2022-08-07T05:19:32.646Z,99.90
2022-08-07T05:22:10.018Z,99.90
2022-08-07T05:24:39.441Z,99.90
2022-08-07T05:28:02.143Z,99.90
2022-08-07T05:30:00.726Z,99.90
2022-08-07T05:32:28.298Z,99.90
2022-08-07T05:34:56.585Z,99.90
2022-08-07T05:37:25.118Z,99.90
2022-08-07T05:40:06.303Z,99.90
2022-08-07T05:42:39.885Z,99.90
2022-08-07T05:45:26.275Z,99.90
2022-08-07T05:48:01.421Z,99.90
2022-08-07T05:50:33.762Z,99.90
2022-08-07T05:53:01.902Z,99.90
2022-08-07T05:56:03.649Z,99.90
2022-08-07T05:58:35.976Z,99.90
2022-08-07T06:01:05.870Z,99.90
2022-08-07T06:03:53.686Z,99.90
2022-08-07T06:06:23.055Z,99.90
2022-08-07T06:08:57.053Z,99.90
2022-08-07T06:11:25.490Z,99.90
2022-08-07T06:14:13.174Z,99.90
2022-08-07T06:16:40.512Z,99.90
2022-08-07T06:19:07.950Z,99.90
2022-08-07T06:22:14.888Z,99.90
2022-08-07T06:24:46.309Z,99.90
2022-08-07T06:27:22.941Z,99.90
2022-08-07T06:30:32.161Z,99.50
2022-08-07T06:32:55.664Z,99.80
2022-08-07T06:35:22.225Z,98.70
2022-08-07T06:37:49.272Z,98.50
2022-08-07T06:40:21.310Z,98.90
2022-08-07T06:42:49.451Z,98.90
2022-08-07T06:45:21.083Z,98.30
2022-08-07T06:47:58.847Z,98.20
2022-08-07T06:50:27.222Z,97.80
2022-08-07T06:52:58.446Z,97.50
2022-08-07T06:55:59.860Z,96.90
2022-08-07T06:58:21.503Z,97.00
2022-08-07T07:00:53.053Z,96.20
2022-08-07T07:03:39.923Z,94.90
2022-08-07T07:06:11.406Z,93.80
2022-08-07T07:08:39.971Z,93.90
2022-08-07T07:12:08.309Z,93.60
2022-08-07T07:14:02.366Z,93.20
2022-08-07T07:16:45.164Z,92.90
2022-08-07T07:19:57.858Z,93.30
2022-08-07T07:22:34.207Z,92.90
2022-08-07T07:25:02.893Z,93.40
2022-08-07T07:27:58.516Z,92.40
2022-08-07T07:30:40.028Z,92.20
2022-08-07T07:33:11.846Z,92.60
2022-08-07T07:35:54.770Z,92.30
2022-08-07T07:38:29.373Z,92.10
2022-08-07T07:41:02.558Z,91.20
2022-08-07T07:43:48.189Z,91.30
2022-08-07T07:46:38.265Z,91.10
2022-08-07T07:50:29.589Z,90.90
2022-08-07T07:51:59.919Z,90.20
2022-08-07T07:54:29.341Z,89.10
2022-08-07T07:56:58.545Z,89.60
2022-08-07T07:59:52.911Z,87.70
2022-08-07T08:02:34.162Z,87.70
2022-08-07T08:05:05.081Z,88.60
2022-08-07T08:07:36.008Z,88.60
2022-08-07T08:10:14.857Z,86.50
2022-08-07T08:12:59.953Z,86.50
2022-08-07T08:15:57.672Z,85.20
2022-08-07T08:18:24.223Z,85.40
2022-08-07T08:20:52.476Z,83.60
2022-08-07T08:23:40.193Z,82.80
2022-08-07T08:26:26.459Z,82.60
2022-08-07T08:28:55.648Z,82.20
2022-08-07T08:31:58.718Z,80.60
2022-08-07T08:34:27.126Z,78.60
2022-08-07T08:36:59.321Z,78.80
2022-08-07T08:39:39.728Z,77.90
2022-08-07T08:42:27.518Z,78.30
2022-08-07T08:45:00.285Z,77.60
2022-08-07T08:47:54.641Z,77.10
2022-08-07T08:50:34.750Z,75.90
2022-08-07T08:53:30.059Z,75.80
2022-08-07T08:56:01.947Z,74.10
2022-08-07T08:58:50.554Z,73.70
2022-08-07T09:01:29.872Z,74.00
2022-08-07T09:04:28.788Z,73.30
2022-08-07T09:07:11.106Z,73.10
2022-08-07T09:09:48.993Z,71.80
2022-08-07T09:12:30.925Z,73.10
2022-08-07T09:16:22.654Z,71.50
2022-08-07T09:18:35.000Z,72.10
2022-08-07T09:21:34.107Z,72.20
2022-08-07T09:24:56.089Z,70.70
2022-08-07T09:28:00.375Z,71.70
2022-08-07T09:30:46.271Z,70.70
2022-08-07T09:33:52.499Z,70.90
2022-08-07T09:36:35.358Z,70.20
2022-08-07T09:39:53.988Z,71.40
2022-08-07T09:42:42.761Z,68.90
2022-08-07T09:47:27.830Z,68.50
2022-08-07T09:50:02.859Z,67.70
2022-08-07T09:52:15.231Z,64.50
2022-08-07T09:55:29.038Z,66.20
2022-08-07T09:58:32.203Z,65.20
2022-08-07T10:01:51.575Z,62.80
2022-08-07T10:04:47.548Z,63.90
2022-08-07T10:07:59.092Z,64.60
2022-08-07T10:10:53.835Z,63.70
2022-08-07T10:14:00.484Z,61.10
2022-08-07T10:16:47.173Z,60.30
2022-08-07T10:19:37.679Z,61.20
2022-08-07T10:22:46.793Z,60.90
2022-08-07T10:25:42.501Z,59.60
2022-08-07T10:28:30.124Z,58.90
2022-08-07T10:31:02.816Z,57.90
2022-08-07T10:34:06.569Z,58.50
2022-08-07T10:36:37.563Z,58.10
2022-08-07T10:40:03.363Z,57.10
2022-08-07T10:42:36.765Z,56.00
2022-08-07T10:45:11.524Z,57.30
2022-08-07T10:48:03.171Z,55.40
2022-08-07T10:50:50.322Z,57.50
2022-08-07T10:53:59.868Z,55.10
2022-08-07T10:56:54.785Z,55.30
2022-08-07T10:59:50.474Z,55.90
2022-08-07T11:02:34.107Z,55.00
2022-08-07T11:05:50.615Z,53.50
2022-08-07T11:08:39.251Z,54.50
2022-08-07T11:11:11.775Z,53.60
2022-08-07T11:14:45.146Z,53.30
2022-08-07T11:16:41.003Z,53.20
2022-08-07T11:19:27.200Z,53.30
2022-08-07T11:22:32.368Z,52.70
2022-08-07T11:25:20.690Z,51.80
2022-08-07T11:28:28.633Z,52.40
2022-08-07T11:31:08.673Z,51.20
2022-08-07T11:34:00.452Z,50.30
2022-08-07T11:36:52.362Z,50.50
2022-08-07T11:40:00.631Z,50.00
2022-08-07T11:42:49.718Z,49.40
2022-08-07T11:46:11.659Z,48.60
2022-08-07T11:49:51.022Z,49.10
2022-08-07T11:52:02.536Z,48.70
2022-08-07T11:55:13.219Z,48.50
2022-08-07T11:58:33.858Z,48.80
2022-08-07T12:01:25.863Z,47.80
2022-08-07T12:04:45.734Z,48.20
2022-08-07T12:07:38.677Z,46.20
2022-08-07T12:10:13.673Z,47.00
2022-08-07T12:12:43.818Z,47.10
2022-08-07T12:15:46.024Z,47.40
2022-08-07T12:18:22.072Z,47.80
2022-08-07T12:22:37.766Z,45.80
2022-08-07T12:24:40.262Z,45.20
2022-08-07T12:27:16.153Z,45.80
2022-08-07T12:29:51.849Z,45.00
2022-08-07T12:32:31.043Z,44.10
2022-08-07T12:34:59.557Z,44.40
2022-08-07T12:38:10.201Z,43.80
2022-08-07T12:40:46.918Z,43.70
2022-08-07T12:44:02.704Z,42.50
2022-08-07T12:46:31.953Z,42.60
2022-08-07T12:49:39.563Z,43.10
2022-08-07T12:52:19.334Z,43.20
2022-08-07T12:55:09.909Z,41.90
2022-08-07T12:58:01.291Z,42.40
2022-08-07T13:00:49.922Z,42.90
2022-08-07T13:04:00.649Z,42.20
2022-08-07T13:06:54.242Z,41.50
2022-08-07T13:10:19.705Z,41.20
2022-08-07T13:13:08.529Z,40.00
2022-08-07T13:16:23.510Z,41.20
2022-08-07T13:18:57.582Z,40.00
2022-08-07T13:21:50.451Z,40.80
2022-08-07T13:24:29.428Z,40.00
2022-08-07T13:27:20.528Z,39.90
2022-08-07T13:30:03.588Z,39.20
2022-08-07T13:32:44.612Z,38.70
2022-08-07T13:35:23.940Z,39.90
2022-08-07T13:38:19.765Z,38.80
2022-08-07T13:41:25.423Z,39.70
2022-08-07T13:43:57.058Z,39.20
2022-08-07T13:46:33.348Z,38.10
2022-08-07T13:49:03.998Z,38.70
2022-08-07T13:52:19.084Z,38.80
2022-08-07T13:54:30.837Z,38.60
2022-08-07T13:57:03.217Z,37.90
2022-08-07T13:59:33.937Z,37.60
2022-08-07T14:02:19.219Z,37.00
2022-08-07T14:05:04.672Z,37.30
2022-08-07T14:07:38.650Z,37.40
2022-08-07T14:10:28.299Z,37.10
2022-08-07T14:13:02.734Z,36.80
2022-08-07T14:15:41.838Z,36.90
2022-08-07T14:18:29.277Z,36.70
2022-08-07T14:21:20.926Z,37.60
2022-08-07T14:24:08.649Z,37.70
2022-08-07T14:26:54.406Z,36.90
2022-08-07T14:30:09.736Z,36.90
2022-08-07T14:32:15.067Z,37.10
2022-08-07T14:34:46.030Z,38.10
2022-08-07T14:37:16.538Z,37.00
2022-08-07T14:40:18.044Z,37.20
2022-08-07T14:42:35.443Z,37.40
2022-08-07T14:45:25.218Z,36.30
2022-08-07T14:51:07.225Z,35.30
2022-08-07T14:54:05.579Z,34.90
2022-08-07T14:56:33.373Z,35.40
2022-08-07T14:59:14.138Z,35.40
2022-08-07T15:01:58.420Z,35.60
2022-08-07T15:04:26.171Z,35.00
2022-08-07T15:06:56.913Z,34.80
2022-08-07T15:09:58.273Z,34.70
2022-08-07T15:12:25.874Z,35.60
2022-08-07T15:15:09.089Z,35.10
2022-08-07T15:17:59.537Z,35.20
2022-08-07T15:25:15.315Z,35.00
2022-08-07T15:26:21.038Z,34.60
2022-08-07T15:28:55.523Z,34.90
2022-08-07T15:34:17.169Z,34.90
2022-08-07T15:37:02.897Z,34.10
2022-08-07T15:39:57.274Z,34.00
2022-08-07T15:42:48.172Z,34.60
2022-08-07T15:48:25.641Z,33.60
2022-08-07T15:51:08.945Z,34.00
2022-08-07T15:53:56.522Z,33.40
2022-08-07T15:56:33.132Z,33.30
2022-08-07T15:59:05.772Z,33.70
2022-08-07T16:01:39.395Z,33.70
2022-08-07T16:04:15.107Z,33.70
2022-08-07T16:06:50.238Z,33.80
2022-08-07T16:09:22.515Z,32.80
2022-08-07T16:12:00.092Z,33.30
2022-08-07T16:14:53.224Z,32.90
2022-08-07T16:18:01.428Z,33.60
2022-08-07T16:20:55.185Z,33.20
2022-08-07T16:24:09.298Z,33.30
2022-08-07T16:27:40.697Z,33.70
2022-08-07T16:30:31.837Z,34.90
2022-08-07T16:34:03.054Z,34.90
2022-08-07T16:36:20.848Z,35.00
2022-08-07T16:39:02.922Z,34.90
2022-08-07T16:41:53.964Z,35.10
2022-08-07T16:45:13.996Z,35.60
2022-08-07T16:47:53.002Z,36.00
2022-08-07T16:51:21.706Z,36.00
2022-08-07T16:54:32.939Z,36.10
2022-08-07T16:58:01.700Z,36.90
2022-08-07T17:00:29.777Z,36.90
2022-08-07T17:03:17.305Z,37.50
2022-08-07T17:06:29.789Z,38.00
2022-08-07T17:10:06.098Z,38.20
2022-08-07T17:12:33.781Z,38.90
2022-08-07T17:15:17.885Z,38.90
2022-08-07T17:17:55.329Z,39.00
2022-08-07T17:20:54.673Z,39.50
2022-08-07T17:23:49.950Z,39.90
2022-08-07T17:26:49.619Z,40.10
2022-08-07T17:30:16.082Z,39.70
2022-08-07T17:34:08.715Z,39.80
2022-08-07T17:35:57.370Z,40.00
2022-08-07T17:38:35.173Z,40.20
2022-08-07T17:42:00.596Z,40.90
2022-08-07T17:44:08.356Z,41.20
2022-08-07T17:46:52.446Z,41.10
2022-08-07T17:49:45.465Z,41.50
2022-08-07T17:53:00.484Z,41.60
2022-08-07T17:56:00.203Z,41.80
2022-08-07T17:58:35.371Z,42.00
2022-08-07T18:01:21.469Z,42.00
2022-08-07T18:04:07.289Z,41.60
2022-08-07T18:07:20.439Z,42.00
2022-08-07T18:10:32.020Z,41.70
2022-08-07T18:13:40.795Z,42.10
2022-08-07T18:16:31.178Z,42.60
2022-08-07T18:21:08.887Z,42.60
2022-08-07T18:22:50.070Z,43.00
2022-08-07T18:25:40.663Z,43.20
2022-08-07T18:28:34.268Z,42.80
2022-08-07T18:31:12.232Z,43.10
2022-08-07T18:34:06.554Z,43.10
2022-08-07T18:37:10.402Z,43.60
2022-08-07T18:40:05.436Z,43.70
2022-08-07T18:43:18.182Z,43.70
2022-08-07T18:46:24.332Z,43.60
2022-08-07T18:50:30.759Z,44.00
2022-08-07T18:52:56.550Z,44.60
2022-08-07T18:55:57.188Z,44.00
2022-08-07T18:59:02.183Z,44.40
2022-08-07T19:02:32.502Z,44.70
2022-08-07T19:04:38.846Z,44.40
2022-08-07T19:07:34.240Z,45.20
2022-08-07T19:10:18.358Z,45.40
2022-08-07T19:13:11.806Z,45.30
2022-08-07T19:17:00.561Z,45.30
2022-08-07T19:19:31.596Z,45.90
2022-08-07T19:22:08.686Z,45.70
2022-08-07T19:24:46.106Z,46.10
2022-08-07T19:28:57.547Z,46.30
2022-08-07T19:31:02.069Z,46.20
2022-08-07T19:33:08.287Z,46.60
2022-08-07T19:35:42.047Z,46.40
2022-08-07T19:38:16.891Z,46.70
2022-08-07T19:40:50.065Z,46.80
2022-08-07T19:43:43.457Z,46.90
2022-08-07T19:46:10.931Z,47.20
2022-08-07T19:48:53.612Z,47.60
2022-08-07T19:51:50.794Z,47.20
2022-08-07T19:54:34.344Z,47.40
2022-08-07T19:58:01.618Z,47.40
2022-08-07T19:59:53.487Z,47.90
2022-08-07T20:02:31.397Z,48.20
2022-08-07T20:05:02.627Z,48.30
2022-08-07T20:07:46.096Z,48.50
2022-08-07T20:10:36.758Z,48.60
2022-08-07T20:13:23.456Z,49.10
2022-08-07T20:15:55.158Z,49.20
2022-08-07T20:18:32.752Z,49.40
2022-08-07T20:21:14.474Z,49.50
2022-08-07T20:24:00.933Z,49.90
2022-08-07T20:26:44.843Z,50.30
2022-08-07T20:29:46.691Z,50.10
2022-08-07T20:32:03.795Z,50.60
2022-08-07T20:34:49.196Z,50.20
2022-08-07T20:37:26.242Z,50.80
2022-08-07T20:40:02.339Z,50.80
2022-08-07T20:42:33.305Z,50.60
2022-08-07T20:45:01.299Z,51.00
2022-08-07T20:47:56.000Z,51.00
2022-08-07T20:50:20.886Z,51.00
2022-08-07T20:52:51.045Z,51.10
2022-08-07T20:55:23.866Z,51.30
2022-08-07T20:58:03.315Z,51.40
2022-08-07T21:00:44.002Z,51.30
2022-08-07T21:03:16.291Z,51.90
2022-08-07T21:05:55.898Z,52.40
2022-08-07T21:08:44.402Z,52.20
2022-08-07T21:11:17.166Z,52.50
2022-08-07T21:14:20.079Z,54.00
2022-08-07T21:16:56.916Z,54.10
2022-08-07T21:19:51.005Z,54.20
2022-08-07T21:22:29.819Z,54.70
2022-08-07T21:25:22.469Z,54.90
2022-08-07T21:28:16.725Z,55.10
2022-08-07T21:31:02.289Z,55.40
2022-08-07T21:33:41.535Z,55.20
2022-08-07T21:36:32.223Z,55.90
2022-08-07T21:39:45.974Z,56.50
2022-08-07T21:42:41.888Z,56.90
2022-08-07T21:46:05.315Z,56.90
2022-08-07T21:48:29.032Z,56.90
2022-08-07T21:51:19.946Z,56.50
2022-08-07T21:53:54.760Z,57.20
2022-08-07T21:56:49.340Z,56.90
2022-08-07T22:00:04.486Z,57.10
2022-08-07T22:02:41.146Z,56.20
2022-08-07T22:05:21.594Z,56.10
2022-08-07T22:07:58.341Z,57.00
2022-08-07T22:10:33.875Z,57.20
2022-08-07T22:13:09.235Z,57.00
2022-08-07T22:16:39.162Z,56.60
2022-08-07T22:18:44.346Z,57.50
2022-08-07T22:22:04.392Z,57.80
2022-08-07T22:24:57.015Z,57.90
2022-08-07T22:28:20.215Z,57.70
2022-08-07T22:30:56.868Z,58.50
2022-08-07T22:33:52.845Z,58.40
2022-08-07T22:36:31.716Z,58.50
2022-08-07T22:39:04.854Z,59.00
2022-08-07T22:42:03.598Z,59.10
2022-08-07T22:44:35.452Z,59.50
2022-08-07T22:47:39.256Z,59.60
2022-08-07T22:50:28.774Z,59.80
2022-08-07T22:54:05.592Z,60.00
2022-08-07T22:56:35.926Z,60.00
2022-08-07T22:59:52.399Z,60.50
2022-08-07T23:02:56.326Z,60.60
2022-08-07T23:06:09.778Z,61.30
2022-08-07T23:10:00.937Z,61.70
2022-08-07T23:12:20.952Z,62.00
2022-08-07T23:15:05.285Z,62.40
2022-08-07T23:17:48.627Z,62.60
2022-08-07T23:20:40.255Z,63.10
2022-08-07T23:24:06.991Z,63.10
2022-08-07T23:26:55.096Z,63.10
2022-08-07T23:30:37.063Z,63.50
2022-08-07T23:34:36.358Z,63.60
2022-08-07T23:36:17.422Z,63.70
2022-08-07T23:39:11.377Z,63.80
2022-08-07T23:42:04.462Z,64.20
2022-08-07T23:44:42.714Z,66.00
2022-08-07T23:47:42.268Z,64.70
2022-08-07T23:50:41.074Z,65.10
2022-08-07T23:53:51.286Z,65.70
2022-08-07T23:56:31.232Z,66.50
2022-08-07T23:59:10.504Z,67.20
